Time;durP1;ratioP1;P1;durP2;ratioP2;P2;SDS_P1;SDS_P2;PMS_P1;PMS_P2;Temp;Humidity;BMP_temperature;BMP_pressure;BME280_temperature;BME280_humidity;BME280_pressure;Samples;Min_cycle;Max_cycle;Signal;HPM_P1;HPM_P2
2023/01/18 00:00:26;;;;;;;;;;;;;;;13.97;47.23;96195.41;4481661;32;33508;-81
2023/01/18 00:02:55;;;;;;;;;;;;;;;14.30;46.56;96186.88;4479835;32;34631;-93
2023/01/18 00:05:22;;;;;;;;;;;;;;;13.94;47.08;96179.94;4483177;32;35320;-84
2023/01/18 00:07:51;;;;;;;;;;;;;;;14.42;46.19;96167.16;4479322;32;34355;-81
2023/01/18 00:10:18;;;;;;;;;;;;;;;14.42;45.99;96147.16;4484361;32;33432;-92
2023/01/18 00:12:45;;;;;;;;;;;;;;;14.26;46.19;96154.06;4484432;31;34251;-92
2023/01/18 00:15:13;;;;;;;;;;;;;;;14.48;45.78;96146.00;4484590;32;34756;-92
2023/01/18 00:17:46;;;;;;;;;;;;;;;14.34;45.88;96131.06;4482693;32;34811;-89
2023/01/18 00:20:13;;;;;;;;;;;;;;;14.47;45.62;96126.94;4484326;32;32571;-83
2023/01/18 00:22:41;;;;;;;;;;;;;;;13.97;46.39;96127.69;4481903;32;33892;-81
2023/01/18 00:25:09;;;;;;;;;;;;;;;13.93;46.08;96125.31;4473418;32;34194;-92
2023/01/18 00:27:37;;;;;;;;;;;;;;;14.13;45.70;96148.62;4480159;32;34074;-92
2023/01/18 00:30:05;;;;;;;;;;;;;;;14.15;45.68;96166.78;4483721;32;34321;-91
2023/01/18 00:32:32;;;;;;;;;;;;;;;13.68;46.51;96182.97;4470433;32;33782;-89
2023/01/18 00:35:02;;;;;;;;;;;;;;;13.87;46.46;96200.22;4474907;32;33967;-85
2023/01/18 00:37:31;;;;;;;;;;;;;;;14.07;46.09;96232.28;4484056;32;34100;-80
2023/01/18 00:39:58;;;;;;;;;;;;;;;13.42;47.38;96262.25;4484480;32;33301;-87
2023/01/18 00:45:11;;;;;;;;;;;;;;;13.79;47.01;96288.28;4482303;32;34532;-79
2023/01/18 00:47:38;;;;;;;;;;;;;;;13.80;47.13;96289.13;4483566;32;33934;-80
2023/01/18 00:50:06;;;;;;;;;;;;;;;13.17;48.83;96296.25;4484277;32;32186;-81
2023/01/18 00:52:33;;;;;;;;;;;;;;;13.32;48.58;96299.06;4456763;32;869516;-90
2023/01/18 00:55:01;;;;;;;;;;;;;;;12.79;50.55;96285.72;4478866;32;34587;-81
2023/01/18 00:57:28;;;;;;;;;;;;;;;11.48;54.72;96287.44;4483435;32;34156;-90
2023/01/18 00:59:56;;;;;;;;;;;;;;;12.33;52.66;96290.22;4469856;32;33580;-86
2023/01/18 01:02:23;;;;;;;;;;;;;;;13.00;50.95;96276.19;4484071;32;34068;-80
2023/01/18 01:07:43;;;;;;;;;;;;;;;13.14;50.58;96282.50;4464423;32;34221;-88
2023/01/18 01:10:11;;;;;;;;;;;;;;;13.02;51.00;96280.41;4469675;32;33191;-84
2023/01/18 01:26:29;;;;;;;;;;;;;;;13.84;48.82;96241.19;4468366;32;34140;-81
2023/01/18 01:28:56;;;;;;;;;;;;;;;13.82;49.14;96248.22;4479324;32;34090;-83
2023/01/18 01:31:23;;;;;;;;;;;;;;;13.64;49.34;96257.75;4478352;32;33779;-81
2023/01/18 01:33:51;;;;;;;;;;;;;;;12.94;51.14;96264.28;4474923;32;34303;-89
2023/01/18 01:36:19;;;;;;;;;;;;;;;13.38;49.70;96269.34;4482056;32;34362;-80
2023/01/18 01:38:47;;;;;;;;;;;;;;;12.85;51.58;96275.94;4483465;32;35169;-80
2023/01/18 01:41:17;;;;;;;;;;;;;;;12.68;52.14;96280.13;4479678;31;34279;-78
2023/01/18 01:43:45;;;;;;;;;;;;;;;12.77;51.93;96277.19;4472108;32;34042;-81
2023/01/18 01:46:13;;;;;;;;;;;;;;;12.59;52.39;96281.37;4484007;32;34304;-81
2023/01/18 01:48:40;;;;;;;;;;;;;;;12.58;52.32;96277.94;4465174;32;33263;-90
2023/01/18 01:51:08;;;;;;;;;;;;;;;12.35;52.97;96291.00;4468782;32;33034;-91
2023/01/18 01:53:35;;;;;;;;;;;;;;;12.01;54.13;96302.75;4464433;32;34784;-84
2023/01/18 01:56:03;;;;;;;;;;;;;;;12.26;53.63;96300.00;4483868;32;34294;-80
2023/01/18 01:58:31;;;;;;;;;;;;;;;12.22;53.78;96293.25;4468986;32;35129;-82
2023/01/18 02:00:58;;;;;;;;;;;;;;;11.82;54.66;96284.41;4477511;31;33064;-90
2023/01/18 02:03:25;;;;;;;;;;;;;;;12.09;54.11;96292.06;4468032;32;34322;-82
2023/01/18 02:06:00;;;;;;;;;;;;;;;11.75;55.07;96289.87;4468225;32;34036;-91
2023/01/18 02:08:28;;;;;;;;;;;;;;;11.88;54.80;96286.78;4467720;32;34485;-84
2023/01/18 02:10:55;;;;;;;;;;;;;;;12.28;53.60;96295.63;4469711;32;33493;-82
2023/01/18 02:13:23;;;;;;;;;;;;;;;10.77;57.88;96304.63;4468359;32;34983;-85
2023/01/18 02:15:56;;;;;;;;;;;;;;;11.69;55.21;96325.53;4477161;32;33863;-85
2023/01/18 02:18:33;;;;;;;;;;;;;;;11.91;54.85;96335.16;4483493;32;34204;-81
2023/01/18 02:21:17;;;;;;;;;;;;;;;11.28;56.52;96341.75;4469646;32;33247;-89
2023/01/18 02:24:08;;;;;;;;;;;;;;;11.58;55.63;96355.38;4467944;32;34020;-79
2023/01/18 02:26:36;;;;;;;;;;;;;;;11.24;56.41;96340.16;4467044;31;34005;-78
2023/01/18 02:29:13;;;;;;;;;;;;;;;10.85;57.40;96332.88;4475667;32;33373;-81
2023/01/18 02:31:44;;;;;;;;;;;;;;;10.77;57.64;96333.13;4464466;32;33287;-81
2023/01/18 02:34:24;;;;;;;;;;;;;;;10.66;57.58;96343.84;4472295;32;34189;-84
2023/01/18 02:37:24;;;;;;;;;;;;;;;10.66;57.49;96338.66;4464405;32;34040;-80
2023/01/18 02:39:57;;;;;;;;;;;;;;;10.58;57.56;96334.63;4441363;32;35111;-82
2023/01/18 02:48:04;;;;;;;;;;;;;;;11.12;55.92;96331.06;4455440;32;35518;-79
2023/01/18 02:50:31;;;;;;;;;;;;;;;10.64;56.85;96332.66;4455033;32;33970;-90
2023/01/18 02:52:58;;;;;;;;;;;;;;;11.58;54.49;96343.25;4483013;32;33216;-82
2023/01/18 02:55:26;;;;;;;;;;;;;;;10.51;57.31;96353.84;4483453;32;34027;-92
2023/01/18 02:57:54;;;;;;;;;;;;;;;10.73;56.83;96341.06;4481857;32;34540;-88
2023/01/18 03:00:22;;;;;;;;;;;;;;;11.29;55.19;96328.75;4468904;32;34326;-80
2023/01/18 03:02:49;;;;;;;;;;;;;;;11.11;55.53;96319.84;4482230;32;34534;-82
2023/01/18 03:05:17;;;;;;;;;;;;;;;11.33;54.81;96330.31;4466456;32;34318;-92
2023/01/18 03:07:49;;;;;;;;;;;;;;;11.59;54.20;96326.78;4468645;32;35105;-92
2023/01/18 03:10:17;;;;;;;;;;;;;;;11.59;54.13;96337.16;4469029;32;34002;-84
2023/01/18 03:13:04;;;;;;;;;;;;;;;11.80;53.74;96324.28;4474438;32;32426;-85
2023/01/18 03:15:31;;;;;;;;;;;;;;;11.69;53.62;96319.50;4469056;32;34688;-92
2023/01/18 03:17:59;;;;;;;;;;;;;;;11.98;53.03;96317.59;4482475;32;34507;-80
2023/01/18 03:20:28;;;;;;;;;;;;;;;11.64;53.31;96319.69;4468556;32;34976;-91
2023/01/18 03:25:55;;;;;;;;;;;;;;;11.99;52.82;96309.72;4466246;32;34190;-86
2023/01/18 03:34:23;;;;;;;;;;;;;;;12.58;51.25;96303.94;4467066;32;33160;-83
2023/01/18 03:36:51;;;;;;;;;;;;;;;12.89;50.36;96289.66;4478769;32;34567;-90
2023/01/18 03:39:21;;;;;;;;;;;;;;;12.88;50.49;96295.75;4482338;32;34248;-89
2023/01/18 03:41:50;;;;;;;;;;;;;;;13.11;49.57;96293.03;4482737;32;34700;-89
2023/01/18 03:44:32;;;;;;;;;;;;;;;13.09;49.85;96292.22;4467221;32;32999;-90
2023/01/18 03:46:59;;;;;;;;;;;;;;;12.99;49.86;96293.53;4466606;32;34334;-80
2023/01/18 03:49:26;;;;;;;;;;;;;;;13.47;49.19;96294.09;4462454;32;34417;-87
2023/01/18 03:52:00;;;;;;;;;;;;;;;13.32;49.09;96290.41;4474048;32;34100;-88
2023/01/18 03:54:36;;;;;;;;;;;;;;;13.79;48.14;96295.25;4481922;32;33830;-79
2023/01/18 03:57:04;;;;;;;;;;;;;;;13.44;48.41;96302.88;4468627;32;34249;-81
2023/01/18 03:59:35;;;;;;;;;;;;;;;12.33;51.49;96305.81;4464127;32;34633;-90
2023/01/18 04:02:03;;;;;;;;;;;;;;;13.25;49.14;96307.19;4464946;32;34103;-92
2023/01/18 04:04:31;;;;;;;;;;;;;;;13.61;48.02;96317.75;4482285;32;34213;-80
2023/01/18 04:06:58;;;;;;;;;;;;;;;13.47;48.30;96331.38;4481262;32;33979;-81
2023/01/18 04:09:25;;;;;;;;;;;;;;;13.08;49.40;96329.56;4482001;32;35091;-89
2023/01/18 04:11:52;;;;;;;;;;;;;;;13.21;48.78;96329.03;4482129;32;34314;-89
2023/01/18 04:14:20;;;;;;;;;;;;;;;12.95;49.62;96314.53;4482160;32;34220;-80
2023/01/18 04:16:47;;;;;;;;;;;;;;;12.92;49.73;96310.31;4478695;32;33643;-81
2023/01/18 04:19:15;;;;;;;;;;;;;;;13.18;49.17;96305.75;4484066;32;35003;-87
2023/01/18 04:21:42;;;;;;;;;;;;;;;12.45;50.48;96302.72;4484355;32;34175;-92
2023/01/18 04:24:10;;;;;;;;;;;;;;;12.97;49.73;96289.31;4470185;32;33358;-80
2023/01/18 04:26:37;;;;;;;;;;;;;;;13.08;49.45;96302.72;4482015;32;35148;-83
2023/01/18 04:29:04;;;;;;;;;;;;;;;13.17;49.39;96307.50;4484587;32;33885;-84
2023/01/18 04:31:31;;;;;;;;;;;;;;;13.71;48.28;96310.34;4484545;32;33952;-88
2023/01/18 04:33:59;;;;;;;;;;;;;;;13.95;47.79;96330.09;4484254;32;33304;-81
2023/01/18 04:36:27;;;;;;;;;;;;;;;13.57;48.03;96343.06;4483131;32;34288;-82
2023/01/18 04:38:54;;;;;;;;;;;;;;;13.55;47.97;96344.88;4484517;32;35252;-90
2023/01/18 04:41:22;;;;;;;;;;;;;;;13.82;47.53;96361.03;4484265;32;34349;-82
2023/01/18 04:43:49;;;;;;;;;;;;;;;13.52;48.09;96360.63;4484491;32;34280;-89
2023/01/18 04:46:16;;;;;;;;;;;;;;;13.55;47.93;96352.69;4475677;32;34008;-82
2023/01/18 04:48:47;;;;;;;;;;;;;;;13.53;48.00;96340.69;4469227;32;34124;-88
2023/01/18 04:51:14;;;;;;;;;;;;;;;13.35;48.16;96348.38;4484120;32;35057;-81
2023/01/18 04:53:42;;;;;;;;;;;;;;;13.45;48.23;96356.63;4484492;32;33783;-89
2023/01/18 04:56:10;;;;;;;;;;;;;;;13.41;48.40;96365.50;4478607;32;34572;-89
2023/01/18 04:58:37;;;;;;;;;;;;;;;13.47;48.15;96375.63;4484184;32;34406;-85
2023/01/18 05:01:05;;;;;;;;;;;;;;;12.82;49.23;96377.44;4465236;32;34873;-90
2023/01/18 05:03:36;;;;;;;;;;;;;;;13.10;49.06;96389.31;4483783;32;33326;-80
2023/01/18 05:06:05;;;;;;;;;;;;;;;13.21;48.33;96397.50;4483849;32;34226;-90
2023/01/18 05:08:32;;;;;;;;;;;;;;;13.09;48.66;96409.28;4484290;32;34137;-81
2023/01/18 05:11:03;;;;;;;;;;;;;;;13.04;48.56;96426.84;4481056;32;34404;-92
2023/01/18 05:13:30;;;;;;;;;;;;;;;12.84;49.10;96429.38;4468544;32;33520;-89
2023/01/18 05:15:59;;;;;;;;;;;;;;;12.31;50.58;96429.72;4474294;32;34121;-79
2023/01/18 05:18:26;;;;;;;;;;;;;;;12.28;50.83;96430.69;4469538;32;35026;-79
2023/01/18 05:20:53;;;;;;;;;;;;;;;12.55;50.15;96428.78;4462334;32;34953;-87
2023/01/18 05:23:21;;;;;;;;;;;;;;;11.47;52.60;96431.00;4474336;32;34199;-82
2023/01/18 05:25:55;;;;;;;;;;;;;;;11.48;53.08;96443.09;4478303;32;34284;-80
2023/01/18 05:28:23;;;;;;;;;;;;;;;11.42;52.90;96444.13;4475214;32;34728;-88
2023/01/18 05:30:50;;;;;;;;;;;;;;;11.06;54.05;96453.12;4482002;32;34899;-81
2023/01/18 05:33:17;;;;;;;;;;;;;;;11.20;53.58;96444.00;4480369;32;34082;-90
2023/01/18 05:35:48;;;;;;;;;;;;;;;11.49;52.41;96430.94;4481825;32;34109;-86
2023/01/18 05:38:16;;;;;;;;;;;;;;;11.20;52.91;96428.44;4480182;32;35514;-83
2023/01/18 05:40:51;;;;;;;;;;;;;;;10.88;53.29;96432.09;4478588;32;34207;-89
2023/01/18 05:43:22;;;;;;;;;;;;;;;10.17;54.69;96428.22;4468311;32;33349;-92
2023/01/18 05:45:50;;;;;;;;;;;;;;;8.47;60.00;96429.22;4469907;32;33989;-79
2023/01/18 05:48:18;;;;;;;;;;;;;;;9.80;55.88;96417.22;4483739;32;34552;-80
2023/01/18 05:50:46;;;;;;;;;;;;;;;9.40;56.96;96397.66;4468951;32;33882;-91
2023/01/18 05:53:14;;;;;;;;;;;;;;;9.62;55.58;96370.31;4474193;32;33189;-89
2023/01/18 05:55:41;;;;;;;;;;;;;;;10.32;53.82;96389.84;4456367;32;34722;-81
2023/01/18 05:58:09;;;;;;;;;;;;;;;9.68;55.58;96395.97;4482907;32;35213;-85
2023/01/18 06:00:36;;;;;;;;;;;;;;;10.16;54.23;96395.44;4463401;32;34196;-84
2023/01/18 06:03:03;;;;;;;;;;;;;;;10.62;53.22;96393.22;4473165;32;33502;-81
2023/01/18 06:05:30;;;;;;;;;;;;;;;10.41;53.67;96387.78;4481347;32;34317;-87
2023/01/18 06:07:58;;;;;;;;;;;;;;;10.28;53.81;96399.44;4476862;32;33989;-91
2023/01/18 06:10:25;;;;;;;;;;;;;;;10.97;51.82;96394.66;4467554;32;34002;-89
2023/01/18 06:12:52;;;;;;;;;;;;;;;10.65;52.83;96419.03;4479054;32;33842;-82
2023/01/18 06:15:20;;;;;;;;;;;;;;;10.05;54.70;96438.94;4482751;32;33892;-90
2023/01/18 06:17:47;;;;;;;;;;;;;;;10.47;53.22;96442.00;4483265;32;33812;-82
2023/01/18 06:20:14;;;;;;;;;;;;;;;11.18;51.44;96435.44;4483182;32;34224;-81
2023/01/18 06:22:44;;;;;;;;;;;;;;;11.53;50.38;96440.31;4482897;32;33402;-81
2023/01/18 06:25:11;;;;;;;;;;;;;;;10.96;51.70;96439.63;4483580;32;34851;-81
2023/01/18 06:27:39;;;;;;;;;;;;;;;11.79;49.63;96423.84;4483675;32;34811;-81
2023/01/18 06:30:06;;;;;;;;;;;;;;;10.69;51.54;96426.66;4483595;32;33672;-87
2023/01/18 06:32:34;;;;;;;;;;;;;;;11.15;51.04;96407.00;4483821;32;34171;-90
2023/01/18 06:35:01;;;;;;;;;;;;;;;10.63;51.27;96369.84;4483699;32;34211;-81
2023/01/18 06:37:28;;;;;;;;;;;;;;;11.68;48.60;96336.81;4483451;32;34883;-80
2023/01/18 06:39:55;;;;;;;;;;;;;;;11.31;49.75;96371.00;4483818;32;35015;-91
2023/01/18 06:42:23;;;;;;;;;;;;;;;11.63;49.05;96369.88;4483744;32;33844;-82
2023/01/18 06:44:50;;;;;;;;;;;;;;;11.29;49.90;96400.50;4483455;32;34027;-91
2023/01/18 06:47:18;;;;;;;;;;;;;;;11.19;50.28;96434.53;4483588;32;35310;-82
2023/01/18 06:49:46;;;;;;;;;;;;;;;11.39;49.50;96445.97;4483435;32;33733;-81
2023/01/18 06:52:16;;;;;;;;;;;;;;;11.37;49.78;96464.19;4483604;32;33508;-85
2023/01/18 06:54:44;;;;;;;;;;;;;;;11.55;49.16;96473.06;4483772;32;33742;-91
2023/01/18 06:57:11;;;;;;;;;;;;;;;12.14;47.60;96449.37;4483764;32;34574;-89
2023/01/18 06:59:38;;;;;;;;;;;;;;;11.83;47.89;96469.53;4483401;31;34024;-81
2023/01/18 07:02:06;;;;;;;;;;;;;;;11.76;48.33;96505.25;4483723;32;33590;-91
2023/01/18 07:04:40;;;;;;;;;;;;;;;11.93;47.47;96515.06;4483342;32;33503;-90
2023/01/18 07:07:07;;;;;;;;;;;;;;;11.60;48.43;96510.13;4483988;32;34301;-81
2023/01/18 07:09:34;;;;;;;;;;;;;;;10.75;50.18;96497.31;4484002;32;34561;-91
2023/01/18 07:12:17;;;;;;;;;;;;;;;11.45;48.66;96497.66;4483906;32;32959;-84
2023/01/18 07:14:45;;;;;;;;;;;;;;;9.49;52.93;96513.75;4483633;32;34319;-89
2023/01/18 07:17:12;;;;;;;;;;;;;;;9.58;53.18;96521.25;4484350;32;34296;-91
2023/01/18 07:19:40;;;;;;;;;;;;;;;10.02;52.00;96537.38;4484262;32;34474;-91
2023/01/18 07:22:07;;;;;;;;;;;;;;;10.13;51.67;96545.69;4483615;32;33653;-88
2023/01/18 07:24:35;;;;;;;;;;;;;;;11.07;49.36;96556.81;4484334;32;34242;-81
2023/01/18 07:27:05;;;;;;;;;;;;;;;11.43;48.31;96569.50;4483037;32;35251;-89
2023/01/18 07:29:33;;;;;;;;;;;;;;;11.33;48.20;96571.53;4483182;32;33727;-82
2023/01/18 07:32:01;;;;;;;;;;;;;;;11.40;47.82;96575.66;4482964;32;33067;-82
2023/01/18 07:34:28;;;;;;;;;;;;;;;11.52;47.84;96568.38;4482882;32;34054;-80
2023/01/18 07:36:56;;;;;;;;;;;;;;;11.98;46.96;96552.12;4483030;32;35393;-91
2023/01/18 07:39:23;;;;;;;;;;;;;;;10.99;48.53;96557.94;4482911;32;34319;-91
2023/01/18 07:41:50;;;;;;;;;;;;;;;11.54;47.21;96546.63;4482861;32;33315;-90
2023/01/18 07:44:17;;;;;;;;;;;;;;;11.45;47.20;96554.75;4482765;32;34756;-81
2023/01/18 07:46:45;;;;;;;;;;;;;;;11.52;46.82;96569.22;4482949;32;34557;-81
2023/01/18 07:49:12;;;;;;;;;;;;;;;11.80;46.48;96594.25;4482807;32;34239;-81
2023/01/18 07:51:40;;;;;;;;;;;;;;;11.63;46.87;96594.78;4484751;32;33389;-81
2023/01/18 07:54:07;;;;;;;;;;;;;;;11.34;47.56;96612.13;4484708;32;34737;-82
2023/01/18 07:56:36;;;;;;;;;;;;;;;11.53;47.65;96615.00;4484533;32;35373;-80
2023/01/18 07:59:03;;;;;;;;;;;;;;;11.99;46.88;96610.94;4484432;32;35207;-91
2023/01/18 08:01:31;;;;;;;;;;;;;;;11.70;47.57;96624.81;4484575;31;33717;-81
2023/01/18 08:03:58;;;;;;;;;;;;;;;12.26;46.44;96626.47;4484576;32;35199;-82
2023/01/18 08:06:26;;;;;;;;;;;;;;;11.28;48.76;96642.59;4484882;32;35259;-81
2023/01/18 08:08:53;;;;;;;;;;;;;;;11.03;49.30;96640.75;4484611;32;33523;-81
2023/01/18 08:11:21;;;;;;;;;;;;;;;10.94;50.06;96647.03;4484344;32;33071;-91
2023/01/18 08:13:51;;;;;;;;;;;;;;;10.71;50.31;96647.69;4484743;32;34214;-81
2023/01/18 08:16:18;;;;;;;;;;;;;;;9.53;53.67;96651.59;4485000;32;33964;-86
2023/01/18 08:18:49;;;;;;;;;;;;;;;10.07;52.49;96661.50;4484307;32;34178;-92
2023/01/18 08:21:16;;;;;;;;;;;;;;;10.33;51.93;96671.22;4484690;32;33094;-91
2023/01/18 08:23:44;;;;;;;;;;;;;;;9.83;53.99;96681.91;4484376;32;33866;-90
2023/01/18 08:26:13;;;;;;;;;;;;;;;10.42;52.67;96696.88;4470272;32;35111;-80
2023/01/18 08:28:41;;;;;;;;;;;;;;;10.56;52.22;96686.13;4484394;32;34253;-81
2023/01/18 08:31:09;;;;;;;;;;;;;;;10.38;51.89;96684.87;4484371;32;33434;-81
2023/01/18 08:33:38;;;;;;;;;;;;;;;10.64;51.95;96676.41;4484442;32;35044;-81
2023/01/18 08:36:09;;;;;;;;;;;;;;;9.67;55.37;96689.19;4484319;32;34134;-81
2023/01/18 08:38:36;;;;;;;;;;;;;;;9.53;55.98;96682.62;4470319;32;34250;-81
2023/01/18 08:41:04;;;;;;;;;;;;;;;10.33;53.51;96682.41;4470331;32;32498;-81
2023/01/18 08:43:31;;;;;;;;;;;;;;;10.76;52.34;96685.59;4484124;32;35012;-80
2023/01/18 08:45:58;;;;;;;;;;;;;;;10.78;52.09;96691.59;4484360;32;33928;-81
2023/01/18 08:48:25;;;;;;;;;;;;;;;10.64;51.95;96687.63;4484602;32;33317;-81
2023/01/18 08:50:59;;;;;;;;;;;;;;;10.04;54.00;96700.37;4484101;32;33109;-80
2023/01/18 08:53:29;;;;;;;;;;;;;;;9.19;55.91;96714.41;4470355;32;34088;-80
2023/01/18 08:55:56;;;;;;;;;;;;;;;8.53;57.33;96736.38;4484333;32;34446;-80
2023/01/18 08:58:24;;;;;;;;;;;;;;;9.93;54.16;96737.75;4484115;32;34281;-80
2023/01/18 09:00:52;;;;;;;;;;;;;;;9.33;55.71;96747.72;4483708;31;34198;-81
2023/01/18 09:03:20;;;;;;;;;;;;;;;10.10;53.48;96741.66;4483752;32;34241;-80
2023/01/18 09:05:48;;;;;;;;;;;;;;;10.68;51.43;96746.28;4484160;32;33910;-80
2023/01/18 09:08:16;;;;;;;;;;;;;;;10.76;51.57;96758.16;4470222;32;34120;-80
2023/01/18 09:10:43;;;;;;;;;;;;;;;11.52;49.96;96766.41;4485231;32;33232;-91
2023/01/18 09:13:11;;;;;;;;;;;;;;;10.29;53.12;96788.72;4483951;32;33894;-80
2023/01/18 09:15:41;;;;;;;;;;;;;;;10.77;52.18;96806.53;4470738;32;34285;-83
2023/01/18 09:18:08;;;;;;;;;;;;;;;9.43;55.66;96837.16;4484079;32;33691;-80
2023/01/18 09:20:36;;;;;;;;;;;;;;;10.16;54.57;96834.75;4484438;32;33416;-81
2023/01/18 09:23:04;;;;;;;;;;;;;;;9.80;55.28;96842.41;4484058;32;33811;-80
2023/01/18 09:25:32;;;;;;;;;;;;;;;9.85;56.18;96855.25;4469746;32;35236;-80
2023/01/18 09:28:28;;;;;;;;;;;;;;;10.06;54.76;96864.31;4464935;32;33906;-81
2023/01/18 09:31:00;;;;;;;;;;;;;;;9.73;56.12;96867.56;4483821;32;34115;-80
2023/01/18 09:33:28;;;;;;;;;;;;;;;9.62;56.77;96881.59;4470003;32;34373;-81
2023/01/18 09:36:06;;;;;;;;;;;;;;;9.98;55.88;96885.19;4483851;32;35188;-80
2023/01/18 09:38:35;;;;;;;;;;;;;;;9.65;56.81;96899.66;4483946;32;34665;-81
2023/01/18 09:41:04;;;;;;;;;;;;;;;9.20;57.72;96887.56;4484050;32;34135;-80
2023/01/18 09:43:34;;;;;;;;;;;;;;;10.08;55.97;96885.84;4484276;32;34055;-80
2023/01/18 09:46:01;;;;;;;;;;;;;;;10.41;54.80;96905.81;4469750;32;35369;-81
2023/01/18 09:48:29;;;;;;;;;;;;;;;10.45;54.45;96909.19;4484218;32;33675;-80
2023/01/18 09:51:01;;;;;;;;;;;;;;;10.87;53.69;96906.47;4483850;32;34109;-80
2023/01/18 09:53:31;;;;;;;;;;;;;;;10.84;53.50;96906.56;4469584;32;35180;-81
2023/01/18 09:56:03;;;;;;;;;;;;;;;10.77;53.53;96899.81;4484221;32;34296;-80
2023/01/18 09:58:37;;;;;;;;;;;;;;;10.97;53.74;96900.16;4469840;32;34198;-81
2023/01/18 10:01:05;;;;;;;;;;;;;;;11.58;52.27;96903.75;4484162;31;33481;-80
2023/01/18 10:03:33;;;;;;;;;;;;;;;11.64;52.24;96902.72;4469685;32;34863;-81
2023/01/18 10:06:07;;;;;;;;;;;;;;;11.54;51.90;96904.72;4483613;32;35779;-81
2023/01/18 10:08:42;;;;;;;;;;;;;;;11.36;52.56;96915.59;4469827;32;34018;-83
2023/01/18 10:11:10;;;;;;;;;;;;;;;11.13;53.14;96927.41;4469635;32;32749;-80
2023/01/18 10:13:50;;;;;;;;;;;;;;;10.33;55.37;96935.38;4483403;32;34563;-80
2023/01/18 10:16:19;;;;;;;;;;;;;;;10.54;55.10;96947.84;4469448;32;35097;-80
2023/01/18 10:21:41;;;;;;;;;;;;;;;11.35;52.97;96953.66;4471449;32;33389;-81
2023/01/18 10:24:28;;;;;;;;;;;;;;;10.59;55.36;96953.78;4469885;32;34116;-81
2023/01/18 10:27:24;;;;;;;;;;;;;;;11.02;54.04;96946.72;4483888;32;35132;-80
2023/01/18 10:29:55;;;;;;;;;;;;;;;11.11;53.22;96946.50;4427156;32;35220;-85
2023/01/18 10:32:22;;;;;;;;;;;;;;;10.79;54.52;96955.03;4483602;32;33958;-80
2023/01/18 10:34:50;;;;;;;;;;;;;;;10.95;54.19;96946.88;4469410;32;33973;-81
2023/01/18 10:37:24;;;;;;;;;;;;;;;11.07;53.87;96957.84;4483734;32;34184;-81
2023/01/18 10:39:53;;;;;;;;;;;;;;;9.88;55.90;96974.25;4483680;32;33583;-80
2023/01/18 10:42:29;;;;;;;;;;;;;;;9.02;58.70;96996.47;4469469;32;33553;-93
2023/01/18 10:44:56;;;;;;;;;;;;;;;10.31;55.36;97005.34;4483617;32;34063;-81
2023/01/18 10:47:24;;;;;;;;;;;;;;;10.86;54.25;96987.72;4483373;32;34376;-80
2023/01/18 10:49:54;;;;;;;;;;;;;;;10.81;53.42;97010.31;4483307;32;35016;-80
2023/01/18 10:52:21;;;;;;;;;;;;;;;10.80;52.71;97013.78;4469245;32;34220;-81
2023/01/18 10:54:50;;;;;;;;;;;;;;;9.33;56.63;97035.59;4483379;32;34213;-81
2023/01/18 10:57:22;;;;;;;;;;;;;;;10.78;53.17;97036.28;4469366;32;35327;-81
2023/01/18 10:59:51;;;;;;;;;;;;;;;10.87;53.29;97044.72;4469090;32;34315;-81
2023/01/18 11:02:22;;;;;;;;;;;;;;;10.95;53.01;97041.97;4469515;32;33344;-80
2023/01/18 11:05:12;;;;;;;;;;;;;;;11.28;52.35;97042.03;4469177;32;33935;-80
2023/01/18 11:07:40;;;;;;;;;;;;;;;11.85;50.56;97044.94;4474978;32;34413;-81
2023/01/18 11:10:21;;;;;;;;;;;;;;;10.60;53.32;97046.16;4483423;32;34488;-81
2023/01/18 11:12:51;;;;;;;;;;;;;;;11.57;50.92;97044.78;4483324;32;31704;-81
2023/01/18 11:15:18;;;;;;;;;;;;;;;11.71;50.38;97048.78;4483314;32;33961;-80
2023/01/18 11:17:59;;;;;;;;;;;;;;;11.79;50.61;97057.22;4483247;32;34222;-80
2023/01/18 11:20:29;;;;;;;;;;;;;;;11.71;51.17;97067.78;4482849;32;35212;-81
2023/01/18 11:23:08;;;;;;;;;;;;;;;12.20;49.62;97070.84;4483191;32;33482;-83
2023/01/18 11:25:39;;;;;;;;;;;;;;;11.74;51.35;97072.88;4481854;32;33896;-82
2023/01/18 11:28:17;;;;;;;;;;;;;;;11.95;50.12;97071.53;4469034;32;35296;-90
2023/01/18 11:30:51;;;;;;;;;;;;;;;11.12;51.47;97088.22;4482909;32;34263;-80
2023/01/18 11:33:19;;;;;;;;;;;;;;;10.96;52.31;97098.94;4468556;32;33088;-81
2023/01/18 11:35:51;;;;;;;;;;;;;;;11.58;50.54;97103.56;4468989;32;34362;-82
2023/01/18 11:38:18;;;;;;;;;;;;;;;11.77;50.84;97097.91;4482617;32;35490;-80
2023/01/18 11:40:45;;;;;;;;;;;;;;;12.17;49.03;97093.44;4482792;32;35047;-81
2023/01/18 11:43:21;;;;;;;;;;;;;;;11.98;49.51;97093.97;4468598;32;34239;-80
2023/01/18 11:45:52;;;;;;;;;;;;;;;12.12;48.80;97104.81;4468492;32;34801;-80
2023/01/18 11:48:19;;;;;;;;;;;;;;;12.13;48.74;97107.41;4468803;32;33768;-80
2023/01/18 11:50:51;;;;;;;;;;;;;;;12.12;49.20;97121.28;4482648;32;33904;-80
2023/01/18 11:53:24;;;;;;;;;;;;;;;12.75;47.89;97118.69;4482992;32;32916;-91
2023/01/18 11:56:05;;;;;;;;;;;;;;;11.77;49.60;97129.91;4482716;32;34066;-81
2023/01/18 11:58:33;;;;;;;;;;;;;;;12.43;49.00;97130.88;4482621;32;34158;-81
2023/01/18 12:01:20;;;;;;;;;;;;;;;12.43;48.07;97128.25;4468586;32;34190;-80
2023/01/18 12:03:58;;;;;;;;;;;;;;;12.71;47.68;97141.34;4482716;32;34261;-93
2023/01/18 12:06:31;;;;;;;;;;;;;;;12.60;47.84;97152.03;4482848;32;34320;-80
2023/01/18 12:09:02;;;;;;;;;;;;;;;13.04;46.13;97149.94;4482430;32;33918;-81
2023/01/18 12:11:55;;;;;;;;;;;;;;;12.89;46.33;97147.78;4482582;32;34614;-81
2023/01/18 12:14:48;;;;;;;;;;;;;;;13.52;45.27;97144.13;4482389;32;33760;-81
2023/01/18 12:17:33;;;;;;;;;;;;;;;13.38;46.14;97161.97;4482120;32;33543;-80
2023/01/18 12:20:04;;;;;;;;;;;;;;;13.48;46.21;97162.50;4482221;32;34298;-81
2023/01/18 12:22:40;;;;;;;;;;;;;;;13.60;45.70;97165.59;4468018;32;34038;-81
2023/01/18 12:25:18;;;;;;;;;;;;;;;13.54;46.58;97183.16;4482362;32;33841;-80
2023/01/18 12:27:51;;;;;;;;;;;;;;;13.29;45.82;97178.69;4467937;32;34904;-80
2023/01/18 12:30:31;;;;;;;;;;;;;;;13.20;45.79;97173.72;4467948;32;35284;-90
2023/01/18 12:33:11;;;;;;;;;;;;;;;13.56;44.03;97179.63;4467613;32;34014;-80
2023/01/18 12:35:46;;;;;;;;;;;;;;;13.34;44.95;97184.62;4468541;32;33772;-81
2023/01/18 12:38:21;;;;;;;;;;;;;;;13.17;46.34;97196.37;4484706;32;34641;-81
2023/01/18 12:41:00;;;;;;;;;;;;;;;13.27;46.29;97203.91;4470638;32;35232;-91
2023/01/18 12:43:28;;;;;;;;;;;;;;;13.22;46.10;97210.09;4470234;32;34052;-80
2023/01/18 12:46:09;;;;;;;;;;;;;;;13.48;45.06;97207.62;4484411;32;34139;-81
2023/01/18 12:48:36;;;;;;;;;;;;;;;13.67;44.64;97201.84;4484568;32;34982;-81
2023/01/18 12:51:05;;;;;;;;;;;;;;;12.85;46.43;97200.78;4484381;32;34111;-80
2023/01/18 12:53:44;;;;;;;;;;;;;;;13.44;45.42;97202.56;4470217;32;34312;-82
2023/01/18 12:56:13;;;;;;;;;;;;;;;13.91;43.83;97206.31;4470291;32;33319;-80
2023/01/18 12:58:42;;;;;;;;;;;;;;;13.39;45.86;97219.16;4469959;32;34078;-80
2023/01/18 13:01:11;;;;;;;;;;;;;;;13.62;44.51;97222.81;4469921;32;35286;-81
2023/01/18 13:03:44;;;;;;;;;;;;;;;12.82;45.95;97237.25;4470330;32;34363;-80
2023/01/18 13:06:11;;;;;;;;;;;;;;;13.47;44.59;97247.56;4469959;32;33629;-80
2023/01/18 13:08:39;;;;;;;;;;;;;;;13.85;43.81;97251.63;4484165;32;34215;-81
2023/01/18 13:11:06;;;;;;;;;;;;;;;14.08;43.44;97243.06;4484425;32;34259;-80
2023/01/18 13:13:33;;;;;;;;;;;;;;;13.82;44.55;97253.47;4484195;32;33895;-80
2023/01/18 13:16:00;;;;;;;;;;;;;;;13.59;45.12;97252.41;4469905;32;34299;-81
2023/01/18 13:18:37;;;;;;;;;;;;;;;14.52;43.07;97246.00;4484113;32;34736;-80
2023/01/18 13:21:25;;;;;;;;;;;;;;;14.29;43.89;97264.16;4484151;32;34502;-83
2023/01/18 13:24:07;;;;;;;;;;;;;;;14.34;43.78;97275.28;4469950;32;33883;-81
2023/01/18 13:26:34;;;;;;;;;;;;;;;14.57;42.94;97285.81;4469994;32;33441;-80
2023/01/18 13:29:22;;;;;;;;;;;;;;;14.86;41.99;97290.97;4469820;32;34900;-80
2023/01/18 13:31:50;;;;;;;;;;;;;;;14.36;43.32;97294.34;4470094;32;34472;-82
2023/01/18 13:34:31;;;;;;;;;;;;;;;14.16;44.26;97288.88;4469975;32;34879;-82
2023/01/18 13:36:59;;;;;;;;;;;;;;;14.07;44.85;97295.25;4484074;32;33454;-85
2023/01/18 13:39:44;;;;;;;;;;;;;;;14.22;45.08;97304.34;4471631;32;34916;-81